sensor_id;sensor_type;location;lat;lon;timestamp;P1;durP1;ratioP1;P2;durP2;ratioP2
43793;SDS011;29414;44.798;20.366;2023-02-25T00:03:44;28.77;;;10.17;;
43793;SDS011;29414;44.798;20.366;2023-02-25T00:07:44;27.27;;;10.93;;
43793;SDS011;29414;44.798;20.366;2023-02-25T00:11:44;32.70;;;10.57;;
43793;SDS011;29414;44.798;20.366;2023-02-25T00:15:44;26.77;;;10.90;;
43793;SDS011;29414;44.798;20.366;2023-02-25T00:19:45;25.00;;;9.48;;
43793;SDS011;29414;44.798;20.366;2023-02-25T00:23:45;27.38;;;8.85;;
43793;SDS011;29414;44.798;20.366;2023-02-25T00:27:46;26.33;;;9.20;;
43793;SDS011;29414;44.798;20.366;2023-02-25T00:31:46;23.08;;;9.32;;
43793;SDS011;29414;44.798;20.366;2023-02-25T00:35:47;21.70;;;9.77;;
43793;SDS011;29414;44.798;20.366;2023-02-25T00:39:49;23.67;;;9.37;;
43793;SDS011;29414;44.798;20.366;2023-02-25T00:43:56;29.00;;;10.02;;
43793;SDS011;29414;44.798;20.366;2023-02-25T00:47:57;29.50;;;9.00;;
43793;SDS011;29414;44.798;20.366;2023-02-25T00:51:57;27.03;;;8.63;;
43793;SDS011;29414;44.798;20.366;2023-02-25T00:56:00;26.00;;;9.57;;
43793;SDS011;29414;44.798;20.366;2023-02-25T01:00:01;26.93;;;9.20;;
43793;SDS011;29414;44.798;20.366;2023-02-25T01:04:01;28.70;;;11.13;;
43793;SDS011;29414;44.798;20.366;2023-02-25T01:08:01;27.47;;;10.10;;
43793;SDS011;29414;44.798;20.366;2023-02-25T01:12:01;24.70;;;8.52;;
43793;SDS011;29414;44.798;20.366;2023-02-25T01:16:08;20.90;;;9.00;;
43793;SDS011;29414;44.798;20.366;2023-02-25T01:20:09;20.00;;;8.53;;
43793;SDS011;29414;44.798;20.366;2023-02-25T01:24:12;22.73;;;8.00;;
43793;SDS011;29414;44.798;20.366;2023-02-25T01:28:13;28.33;;;8.07;;
43793;SDS011;29414;44.798;20.366;2023-02-25T01:32:14;24.63;;;8.82;;
43793;SDS011;29414;44.798;20.366;2023-02-25T01:36:14;20.67;;;8.93;;
43793;SDS011;29414;44.798;20.366;2023-02-25T01:40:15;25.02;;;9.10;;
43793;SDS011;29414;44.798;20.366;2023-02-25T01:44:20;26.63;;;8.63;;
43793;SDS011;29414;44.798;20.366;2023-02-25T01:48:27;20.77;;;7.57;;
43793;SDS011;29414;44.798;20.366;2023-02-25T01:52:29;23.10;;;8.13;;
43793;SDS011;29414;44.798;20.366;2023-02-25T01:56:30;17.10;;;6.57;;
43793;SDS011;29414;44.798;20.366;2023-02-25T02:00:31;18.90;;;7.17;;
43793;SDS011;29414;44.798;20.366;2023-02-25T02:04:31;23.50;;;6.17;;
43793;SDS011;29414;44.798;20.366;2023-02-25T02:08:31;19.50;;;6.07;;
43793;SDS011;29414;44.798;20.366;2023-02-25T02:12:33;21.63;;;5.73;;
43793;SDS011;29414;44.798;20.366;2023-02-25T02:37:51;17.53;;;4.40;;
43793;SDS011;29414;44.798;20.366;2023-02-25T02:46:02;21.67;;;5.33;;
43793;SDS011;29414;44.798;20.366;2023-02-25T02:54:05;10.90;;;4.50;;
43793;SDS011;29414;44.798;20.366;2023-02-25T02:58:12;15.80;;;5.10;;
43793;SDS011;29414;44.798;20.366;2023-02-25T03:06:20;15.43;;;4.93;;
43793;SDS011;29414;44.798;20.366;2023-02-25T03:10:21;11.93;;;4.43;;
43793;SDS011;29414;44.798;20.366;2023-02-25T03:14:22;18.47;;;5.23;;
43793;SDS011;29414;44.798;20.366;2023-02-25T03:22:32;18.07;;;5.47;;
43793;SDS011;29414;44.798;20.366;2023-02-25T03:26:34;15.60;;;4.13;;
43793;SDS011;29414;44.798;20.366;2023-02-25T03:30:36;18.93;;;6.13;;
43793;SDS011;29414;44.798;20.366;2023-02-25T03:34:43;13.00;;;4.97;;
43793;SDS011;29414;44.798;20.366;2023-02-25T03:38:45;13.70;;;5.18;;
43793;SDS011;29414;44.798;20.366;2023-02-25T03:42:52;13.07;;;4.03;;
43793;SDS011;29414;44.798;20.366;2023-02-25T03:46:52;22.00;;;5.50;;
43793;SDS011;29414;44.798;20.366;2023-02-25T03:51:00;11.67;;;4.23;;
43793;SDS011;29414;44.798;20.366;2023-02-25T03:55:01;19.90;;;4.73;;
43793;SDS011;29414;44.798;20.366;2023-02-25T03:59:01;23.87;;;5.13;;
43793;SDS011;29414;44.798;20.366;2023-02-25T04:03:02;8.82;;;4.18;;
43793;SDS011;29414;44.798;20.366;2023-02-25T04:07:02;14.07;;;4.57;;
43793;SDS011;29414;44.798;20.366;2023-02-25T04:11:02;11.17;;;4.30;;
43793;SDS011;29414;44.798;20.366;2023-02-25T04:15:03;14.33;;;5.53;;
43793;SDS011;29414;44.798;20.366;2023-02-25T04:19:04;12.53;;;5.37;;
43793;SDS011;29414;44.798;20.366;2023-02-25T04:23:05;13.00;;;5.47;;
43793;SDS011;29414;44.798;20.366;2023-02-25T04:27:05;11.53;;;5.73;;
43793;SDS011;29414;44.798;20.366;2023-02-25T04:31:05;11.77;;;5.27;;
43793;SDS011;29414;44.798;20.366;2023-02-25T04:35:06;16.47;;;5.60;;
43793;SDS011;29414;44.798;20.366;2023-02-25T04:39:10;11.53;;;5.33;;
43793;SDS011;29414;44.798;20.366;2023-02-25T04:43:11;11.23;;;5.70;;
43793;SDS011;29414;44.798;20.366;2023-02-25T04:47:11;14.63;;;5.77;;
43793;SDS011;29414;44.798;20.366;2023-02-25T04:51:11;18.05;;;7.10;;
43793;SDS011;29414;44.798;20.366;2023-02-25T04:55:11;18.37;;;6.23;;
43793;SDS011;29414;44.798;20.366;2023-02-25T04:59:12;16.97;;;6.43;;
43793;SDS011;29414;44.798;20.366;2023-02-25T05:03:15;10.23;;;4.97;;
43793;SDS011;29414;44.798;20.366;2023-02-25T05:07:15;12.37;;;6.27;;
43793;SDS011;29414;44.798;20.366;2023-02-25T05:11:17;15.98;;;5.90;;
43793;SDS011;29414;44.798;20.366;2023-02-25T05:15:17;14.00;;;6.20;;
43793;SDS011;29414;44.798;20.366;2023-02-25T05:19:21;14.75;;;5.97;;
43793;SDS011;29414;44.798;20.366;2023-02-25T05:23:21;16.63;;;5.97;;
43793;SDS011;29414;44.798;20.366;2023-02-25T05:27:21;12.80;;;5.95;;
43793;SDS011;29414;44.798;20.366;2023-02-25T05:31:22;14.07;;;6.13;;
43793;SDS011;29414;44.798;20.366;2023-02-25T05:35:23;14.93;;;5.83;;
43793;SDS011;29414;44.798;20.366;2023-02-25T05:39:24;18.90;;;5.97;;
43793;SDS011;29414;44.798;20.366;2023-02-25T05:43:24;14.63;;;6.43;;
43793;SDS011;29414;44.798;20.366;2023-02-25T05:47:25;10.60;;;6.43;;
43793;SDS011;29414;44.798;20.366;2023-02-25T05:51:25;12.17;;;6.00;;
43793;SDS011;29414;44.798;20.366;2023-02-25T05:55:25;14.67;;;7.03;;
43793;SDS011;29414;44.798;20.366;2023-02-25T05:59:26;12.37;;;6.07;;
43793;SDS011;29414;44.798;20.366;2023-02-25T06:03:26;14.88;;;6.13;;
43793;SDS011;29414;44.798;20.366;2023-02-25T06:07:28;18.25;;;6.32;;
43793;SDS011;29414;44.798;20.366;2023-02-25T06:11:29;16.60;;;7.17;;
43793;SDS011;29414;44.798;20.366;2023-02-25T06:15:29;12.30;;;6.53;;
43793;SDS011;29414;44.798;20.366;2023-02-25T06:19:29;13.33;;;6.23;;
43793;SDS011;29414;44.798;20.366;2023-02-25T06:23:30;17.80;;;8.20;;
43793;SDS011;29414;44.798;20.366;2023-02-25T06:27:30;16.80;;;8.80;;
43793;SDS011;29414;44.798;20.366;2023-02-25T06:31:31;17.00;;;8.50;;
43793;SDS011;29414;44.798;20.366;2023-02-25T06:35:32;13.10;;;6.72;;
43793;SDS011;29414;44.798;20.366;2023-02-25T06:39:32;9.30;;;6.03;;
43793;SDS011;29414;44.798;20.366;2023-02-25T06:43:33;14.13;;;6.30;;
43793;SDS011;29414;44.798;20.366;2023-02-25T06:47:42;14.13;;;6.77;;
43793;SDS011;29414;44.798;20.366;2023-02-25T06:51:53;18.27;;;5.47;;
43793;SDS011;29414;44.798;20.366;2023-02-25T06:55:53;18.48;;;6.30;;
43793;SDS011;29414;44.798;20.366;2023-02-25T06:59:53;13.10;;;6.63;;
43793;SDS011;29414;44.798;20.366;2023-02-25T07:03:54;12.90;;;6.53;;
43793;SDS011;29414;44.798;20.366;2023-02-25T07:07:54;15.60;;;6.83;;
43793;SDS011;29414;44.798;20.366;2023-02-25T07:11:54;13.50;;;6.53;;
43793;SDS011;29414;44.798;20.366;2023-02-25T07:15:55;11.83;;;6.40;;
43793;SDS011;29414;44.798;20.366;2023-02-25T07:19:55;19.47;;;7.63;;
43793;SDS011;29414;44.798;20.366;2023-02-25T07:23:56;11.80;;;6.15;;
43793;SDS011;29414;44.798;20.366;2023-02-25T07:27:56;14.37;;;5.90;;
43793;SDS011;29414;44.798;20.366;2023-02-25T07:31:56;16.25;;;6.45;;
43793;SDS011;29414;44.798;20.366;2023-02-25T07:35:57;14.80;;;6.70;;
43793;SDS011;29414;44.798;20.366;2023-02-25T07:39:57;13.27;;;6.17;;
43793;SDS011;29414;44.798;20.366;2023-02-25T07:43:58;14.47;;;6.07;;
43793;SDS011;29414;44.798;20.366;2023-02-25T07:47:59;16.33;;;6.32;;
43793;SDS011;29414;44.798;20.366;2023-02-25T07:51:59;17.27;;;6.15;;
43793;SDS011;29414;44.798;20.366;2023-02-25T07:55:59;16.73;;;6.70;;
43793;SDS011;29414;44.798;20.366;2023-02-25T07:59:59;18.50;;;7.07;;
43793;SDS011;29414;44.798;20.366;2023-02-25T08:04:01;13.60;;;6.80;;
43793;SDS011;29414;44.798;20.366;2023-02-25T08:08:05;19.30;;;7.20;;
43793;SDS011;29414;44.798;20.366;2023-02-25T08:12:05;16.40;;;6.87;;
43793;SDS011;29414;44.798;20.366;2023-02-25T08:16:06;13.50;;;7.18;;
43793;SDS011;29414;44.798;20.366;2023-02-25T08:20:08;14.77;;;6.40;;
43793;SDS011;29414;44.798;20.366;2023-02-25T08:24:08;17.03;;;7.43;;
43793;SDS011;29414;44.798;20.366;2023-02-25T08:28:08;14.20;;;6.63;;
43793;SDS011;29414;44.798;20.366;2023-02-25T08:32:09;14.50;;;6.50;;
43793;SDS011;29414;44.798;20.366;2023-02-25T08:36:13;15.00;;;7.05;;
43793;SDS011;29414;44.798;20.366;2023-02-25T08:40:15;16.43;;;5.60;;
43793;SDS011;29414;44.798;20.366;2023-02-25T08:44:15;10.57;;;5.70;;
43793;SDS011;29414;44.798;20.366;2023-02-25T08:48:18;15.17;;;6.20;;
43793;SDS011;29414;44.798;20.366;2023-02-25T08:52:19;13.77;;;6.00;;
43793;SDS011;29414;44.798;20.366;2023-02-25T08:56:19;14.93;;;5.78;;
43793;SDS011;29414;44.798;20.366;2023-02-25T09:00:19;9.30;;;5.40;;
43793;SDS011;29414;44.798;20.366;2023-02-25T09:04:21;12.63;;;6.27;;
43793;SDS011;29414;44.798;20.366;2023-02-25T09:08:22;13.27;;;6.30;;
43793;SDS011;29414;44.798;20.366;2023-02-25T09:12:22;17.97;;;7.40;;
43793;SDS011;29414;44.798;20.366;2023-02-25T09:16:23;19.67;;;7.55;;
43793;SDS011;29414;44.798;20.366;2023-02-25T09:20:23;10.77;;;7.00;;
43793;SDS011;29414;44.798;20.366;2023-02-25T09:24:24;17.77;;;7.90;;
43793;SDS011;29414;44.798;20.366;2023-02-25T09:28:26;17.37;;;7.10;;
43793;SDS011;29414;44.798;20.366;2023-02-25T09:32:26;14.60;;;7.60;;
43793;SDS011;29414;44.798;20.366;2023-02-25T09:36:27;11.52;;;6.82;;
43793;SDS011;29414;44.798;20.366;2023-02-25T09:40:27;12.74;;;6.32;;
43793;SDS011;29414;44.798;20.366;2023-02-25T09:44:28;16.17;;;6.20;;
43793;SDS011;29414;44.798;20.366;2023-02-25T09:48:30;14.50;;;6.73;;
43793;SDS011;29414;44.798;20.366;2023-02-25T09:52:53;18.00;;;7.63;;
43793;SDS011;29414;44.798;20.366;2023-02-25T09:56:54;16.43;;;9.10;;
43793;SDS011;29414;44.798;20.366;2023-02-25T10:01:06;15.80;;;8.23;;
43793;SDS011;29414;44.798;20.366;2023-02-25T10:05:21;17.10;;;9.37;;
43793;SDS011;29414;44.798;20.366;2023-02-25T10:13:31;15.13;;;8.30;;
43793;SDS011;29414;44.798;20.366;2023-02-25T10:29:58;16.92;;;11.60;;
43793;SDS011;29414;44.798;20.366;2023-02-25T10:34:04;21.93;;;12.17;;
43793;SDS011;29414;44.798;20.366;2023-02-25T10:38:11;20.47;;;12.47;;
43793;SDS011;29414;44.798;20.366;2023-02-25T10:42:11;16.23;;;10.63;;
43793;SDS011;29414;44.798;20.366;2023-02-25T10:46:13;20.23;;;12.63;;
43793;SDS011;29414;44.798;20.366;2023-02-25T10:50:24;21.77;;;13.83;;
43793;SDS011;29414;44.798;20.366;2023-02-25T10:54:24;18.90;;;13.40;;
43793;SDS011;29414;44.798;20.366;2023-02-25T10:58:26;21.13;;;11.17;;
43793;SDS011;29414;44.798;20.366;2023-02-25T11:02:27;19.87;;;12.10;;
43793;SDS011;29414;44.798;20.366;2023-02-25T11:06:33;22.87;;;12.47;;
43793;SDS011;29414;44.798;20.366;2023-02-25T11:10:34;18.13;;;10.63;;
43793;SDS011;29414;44.798;20.366;2023-02-25T11:14:35;21.48;;;11.30;;
43793;SDS011;29414;44.798;20.366;2023-02-25T11:18:36;19.00;;;11.18;;
43793;SDS011;29414;44.798;20.366;2023-02-25T11:22:37;18.33;;;10.90;;
43793;SDS011;29414;44.798;20.366;2023-02-25T11:26:43;16.93;;;10.57;;
43793;SDS011;29414;44.798;20.366;2023-02-25T11:30:44;20.55;;;10.25;;
43793;SDS011;29414;44.798;20.366;2023-02-25T11:34:48;17.43;;;9.87;;
43793;SDS011;29414;44.798;20.366;2023-02-25T11:38:49;18.70;;;10.38;;
43793;SDS011;29414;44.798;20.366;2023-02-25T11:51:14;22.32;;;10.90;;
43793;SDS011;29414;44.798;20.366;2023-02-25T11:55:18;28.67;;;15.75;;
43793;SDS011;29414;44.798;20.366;2023-02-25T12:16:31;2.93;;;2.30;;
43793;SDS011;29414;44.798;20.366;2023-02-25T12:25:15;3.07;;;2.00;;
43793;SDS011;29414;44.798;20.366;2023-02-25T12:38:32;3.43;;;3.13;;
43793;SDS011;29414;44.798;20.366;2023-02-25T12:46:23;2.67;;;2.20;;
43793;SDS011;29414;44.798;20.366;2023-02-25T13:11:45;2.30;;;1.10;;
43793;SDS011;29414;44.798;20.366;2023-02-25T13:48:39;1.13;;;0.60;;
43793;SDS011;29414;44.798;20.366;2023-02-25T13:53:05;2.57;;;1.97;;
43793;SDS011;29414;44.798;20.366;2023-02-25T14:09:42;2.83;;;1.63;;
43793;SDS011;29414;44.798;20.366;2023-02-25T14:14:04;3.13;;;2.17;;
43793;SDS011;29414;44.798;20.366;2023-02-25T14:42:37;2.73;;;1.80;;
43793;SDS011;29414;44.798;20.366;2023-02-25T14:58:57;1.67;;;1.40;;
43793;SDS011;29414;44.798;20.366;2023-02-25T15:24:06;3.93;;;2.00;;
43793;SDS011;29414;44.798;20.366;2023-02-25T15:32:28;2.27;;;1.87;;
43793;SDS011;29414;44.798;20.366;2023-02-25T15:36:40;5.83;;;2.67;;
43793;SDS011;29414;44.798;20.366;2023-02-25T15:44:47;4.30;;;3.23;;
43793;SDS011;29414;44.798;20.366;2023-02-25T15:49:01;34.53;;;5.67;;
43793;SDS011;29414;44.798;20.366;2023-02-25T15:53:02;2.83;;;2.10;;
43793;SDS011;29414;44.798;20.366;2023-02-25T15:57:31;2.83;;;2.63;;
43793;SDS011;29414;44.798;20.366;2023-02-25T16:01:36;3.03;;;2.50;;
43793;SDS011;29414;44.798;20.366;2023-02-25T16:05:45;2.83;;;2.27;;
43793;SDS011;29414;44.798;20.366;2023-02-25T16:09:51;3.80;;;2.47;;
43793;SDS011;29414;44.798;20.366;2023-02-25T16:13:53;3.60;;;2.20;;
43793;SDS011;29414;44.798;20.366;2023-02-25T16:17:54;2.90;;;2.70;;
43793;SDS011;29414;44.798;20.366;2023-02-25T16:21:59;6.57;;;4.37;;
43793;SDS011;29414;44.798;20.366;2023-02-25T16:30:38;3.63;;;3.03;;
43793;SDS011;29414;44.798;20.366;2023-02-25T16:39:00;6.90;;;2.40;;
43793;SDS011;29414;44.798;20.366;2023-02-25T16:43:04;4.70;;;3.43;;
43793;SDS011;29414;44.798;20.366;2023-02-25T16:47:23;2.10;;;1.47;;
43793;SDS011;29414;44.798;20.366;2023-02-25T16:51:28;2.90;;;2.07;;
43793;SDS011;29414;44.798;20.366;2023-02-25T16:55:38;2.30;;;1.73;;
43793;SDS011;29414;44.798;20.366;2023-02-25T16:59:39;3.33;;;2.30;;
43793;SDS011;29414;44.798;20.366;2023-02-25T17:03:43;3.25;;;2.22;;
43793;SDS011;29414;44.798;20.366;2023-02-25T17:07:45;2.85;;;2.22;;
43793;SDS011;29414;44.798;20.366;2023-02-25T17:11:48;3.85;;;2.15;;
43793;SDS011;29414;44.798;20.366;2023-02-25T17:15:51;4.80;;;2.53;;
43793;SDS011;29414;44.798;20.366;2023-02-25T17:19:51;3.13;;;2.50;;
43793;SDS011;29414;44.798;20.366;2023-02-25T17:23:52;5.73;;;3.63;;
43793;SDS011;29414;44.798;20.366;2023-02-25T17:27:53;2.60;;;2.17;;
43793;SDS011;29414;44.798;20.366;2023-02-25T17:31:53;2.77;;;1.73;;
43793;SDS011;29414;44.798;20.366;2023-02-25T17:35:58;2.67;;;2.00;;
43793;SDS011;29414;44.798;20.366;2023-02-25T17:40:00;4.33;;;1.70;;
43793;SDS011;29414;44.798;20.366;2023-02-25T17:44:01;2.60;;;2.00;;
43793;SDS011;29414;44.798;20.366;2023-02-25T17:48:01;3.03;;;1.93;;
43793;SDS011;29414;44.798;20.366;2023-02-25T17:52:02;1.92;;;1.48;;
43793;SDS011;29414;44.798;20.366;2023-02-25T17:56:07;4.17;;;2.30;;
43793;SDS011;29414;44.798;20.366;2023-02-25T18:00:10;2.07;;;1.20;;
43793;SDS011;29414;44.798;20.366;2023-02-25T18:04:23;1.70;;;1.43;;
43793;SDS011;29414;44.798;20.366;2023-02-25T18:08:27;2.20;;;1.13;;
43793;SDS011;29414;44.798;20.366;2023-02-25T18:12:29;2.37;;;1.00;;
43793;SDS011;29414;44.798;20.366;2023-02-25T18:20:35;3.30;;;1.50;;
43793;SDS011;29414;44.798;20.366;2023-02-25T18:24:36;1.93;;;1.60;;
43793;SDS011;29414;44.798;20.366;2023-02-25T18:28:36;2.17;;;1.70;;
43793;SDS011;29414;44.798;20.366;2023-02-25T18:32:37;2.10;;;1.40;;
43793;SDS011;29414;44.798;20.366;2023-02-25T18:36:38;1.57;;;1.27;;
43793;SDS011;29414;44.798;20.366;2023-02-25T18:40:39;2.88;;;1.80;;
43793;SDS011;29414;44.798;20.366;2023-02-25T18:44:39;2.80;;;1.93;;
43793;SDS011;29414;44.798;20.366;2023-02-25T18:48:39;4.37;;;1.93;;
43793;SDS011;29414;44.798;20.366;2023-02-25T18:52:40;1.70;;;1.60;;
43793;SDS011;29414;44.798;20.366;2023-02-25T18:56:40;2.77;;;2.23;;
43793;SDS011;29414;44.798;20.366;2023-02-25T19:00:42;1.83;;;1.70;;
43793;SDS011;29414;44.798;20.366;2023-02-25T19:04:42;3.07;;;1.73;;
43793;SDS011;29414;44.798;20.366;2023-02-25T19:08:43;3.67;;;1.70;;
43793;SDS011;29414;44.798;20.366;2023-02-25T19:12:43;1.50;;;1.40;;
43793;SDS011;29414;44.798;20.366;2023-02-25T19:16:44;4.70;;;2.43;;
43793;SDS011;29414;44.798;20.366;2023-02-25T19:20:44;3.58;;;2.08;;
43793;SDS011;29414;44.798;20.366;2023-02-25T19:24:45;1.53;;;1.43;;
43793;SDS011;29414;44.798;20.366;2023-02-25T19:28:46;3.97;;;2.80;;
43793;SDS011;29414;44.798;20.366;2023-02-25T19:32:47;2.70;;;2.00;;
43793;SDS011;29414;44.798;20.366;2023-02-25T19:36:47;2.20;;;1.77;;
43793;SDS011;29414;44.798;20.366;2023-02-25T19:40:48;1.50;;;1.40;;
43793;SDS011;29414;44.798;20.366;2023-02-25T19:44:48;2.20;;;1.40;;
43793;SDS011;29414;44.798;20.366;2023-02-25T19:48:49;2.92;;;1.83;;
43793;SDS011;29414;44.798;20.366;2023-02-25T19:52:49;3.95;;;1.80;;
43793;SDS011;29414;44.798;20.366;2023-02-25T19:56:49;4.07;;;2.20;;
43793;SDS011;29414;44.798;20.366;2023-02-25T20:00:49;1.33;;;0.80;;
43793;SDS011;29414;44.798;20.366;2023-02-25T20:04:50;1.45;;;0.77;;
43793;SDS011;29414;44.798;20.366;2023-02-25T20:08:50;1.80;;;1.10;;
43793;SDS011;29414;44.798;20.366;2023-02-25T20:12:52;1.33;;;0.90;;
43793;SDS011;29414;44.798;20.366;2023-02-25T20:16:53;1.33;;;1.13;;
43793;SDS011;29414;44.798;20.366;2023-02-25T20:20:54;1.40;;;1.30;;
43793;SDS011;29414;44.798;20.366;2023-02-25T20:24:54;2.40;;;0.90;;
43793;SDS011;29414;44.798;20.366;2023-02-25T20:28:55;1.07;;;0.50;;
43793;SDS011;29414;44.798;20.366;2023-02-25T20:32:55;2.77;;;1.10;;
43793;SDS011;29414;44.798;20.366;2023-02-25T20:37:01;2.10;;;1.37;;
43793;SDS011;29414;44.798;20.366;2023-02-25T20:45:02;1.60;;;1.50;;
43793;SDS011;29414;44.798;20.366;2023-02-25T20:49:03;1.30;;;1.17;;
43793;SDS011;29414;44.798;20.366;2023-02-25T20:53:04;1.57;;;1.30;;
43793;SDS011;29414;44.798;20.366;2023-02-25T20:57:05;2.53;;;1.63;;
43793;SDS011;29414;44.798;20.366;2023-02-25T21:01:06;2.47;;;2.00;;
43793;SDS011;29414;44.798;20.366;2023-02-25T21:05:06;2.43;;;2.20;;
43793;SDS011;29414;44.798;20.366;2023-02-25T21:09:06;2.43;;;1.90;;
43793;SDS011;29414;44.798;20.366;2023-02-25T21:13:07;3.40;;;1.40;;
43793;SDS011;29414;44.798;20.366;2023-02-25T21:17:07;2.65;;;1.92;;
43793;SDS011;29414;44.798;20.366;2023-02-25T21:21:13;3.40;;;1.37;;
43793;SDS011;29414;44.798;20.366;2023-02-25T21:25:13;3.80;;;1.00;;
43793;SDS011;29414;44.798;20.366;2023-02-25T21:29:13;2.85;;;0.90;;
43793;SDS011;29414;44.798;20.366;2023-02-25T21:33:14;0.80;;;0.57;;
43793;SDS011;29414;44.798;20.366;2023-02-25T21:37:14;1.27;;;0.57;;
43793;SDS011;29414;44.798;20.366;2023-02-25T21:41:15;3.10;;;0.60;;
43793;SDS011;29414;44.798;20.366;2023-02-25T21:45:15;1.50;;;1.10;;
43793;SDS011;29414;44.798;20.366;2023-02-25T21:49:16;0.97;;;0.60;;
43793;SDS011;29414;44.798;20.366;2023-02-25T21:53:17;1.37;;;1.07;;
43793;SDS011;29414;44.798;20.366;2023-02-25T21:57:17;2.80;;;1.30;;
43793;SDS011;29414;44.798;20.366;2023-02-25T22:01:18;1.10;;;0.80;;
43793;SDS011;29414;44.798;20.366;2023-02-25T22:05:19;0.70;;;0.70;;
43793;SDS011;29414;44.798;20.366;2023-02-25T22:09:19;1.02;;;0.60;;
43793;SDS011;29414;44.798;20.366;2023-02-25T22:13:20;1.75;;;1.25;;
43793;SDS011;29414;44.798;20.366;2023-02-25T22:17:20;0.98;;;0.60;;
43793;SDS011;29414;44.798;20.366;2023-02-25T22:21:22;1.20;;;0.83;;
43793;SDS011;29414;44.798;20.366;2023-02-25T22:25:22;1.27;;;0.90;;
43793;SDS011;29414;44.798;20.366;2023-02-25T22:29:23;1.45;;;1.17;;
43793;SDS011;29414;44.798;20.366;2023-02-25T22:33:23;0.93;;;0.68;;
43793;SDS011;29414;44.798;20.366;2023-02-25T22:37:23;1.60;;;1.15;;
43793;SDS011;29414;44.798;20.366;2023-02-25T22:41:25;1.93;;;1.07;;
43793;SDS011;29414;44.798;20.366;2023-02-25T22:45:26;1.40;;;0.90;;
43793;SDS011;29414;44.798;20.366;2023-02-25T22:49:26;0.90;;;0.63;;
43793;SDS011;29414;44.798;20.366;2023-02-25T22:53:27;1.40;;;1.30;;
43793;SDS011;29414;44.798;20.366;2023-02-25T22:57:27;2.33;;;2.13;;
43793;SDS011;29414;44.798;20.366;2023-02-25T23:01:27;2.17;;;1.97;;
43793;SDS011;29414;44.798;20.366;2023-02-25T23:05:28;1.93;;;1.80;;
43793;SDS011;29414;44.798;20.366;2023-02-25T23:09:28;2.65;;;2.45;;
43793;SDS011;29414;44.798;20.366;2023-02-25T23:13:28;3.03;;;2.72;;
43793;SDS011;29414;44.798;20.366;2023-02-25T23:17:28;3.92;;;3.08;;
43793;SDS011;29414;44.798;20.366;2023-02-25T23:21:32;3.10;;;2.80;;
43793;SDS011;29414;44.798;20.366;2023-02-25T23:25:38;4.40;;;3.33;;
43793;SDS011;29414;44.798;20.366;2023-02-25T23:29:39;3.67;;;3.10;;
43793;SDS011;29414;44.798;20.366;2023-02-25T23:33:39;4.27;;;3.00;;
43793;SDS011;29414;44.798;20.366;2023-02-25T23:37:39;5.55;;;3.45;;
43793;SDS011;29414;44.798;20.366;2023-02-25T23:41:39;3.37;;;2.67;;
43793;SDS011;29414;44.798;20.366;2023-02-25T23:45:40;3.27;;;1.93;;
43793;SDS011;29414;44.798;20.366;2023-02-25T23:49:40;2.40;;;2.20;;
43793;SDS011;29414;44.798;20.366;2023-02-25T23:53:40;2.50;;;2.30;;
43793;SDS011;29414;44.798;20.366;2023-02-25T23:57:41;3.10;;;2.60;;
